sensor_id;sensor_type;location;lat;lon;timestamp;P1;durP1;ratioP1;P2;durP2;ratioP2
15094;SDS011;7648;52.264;9.632;2023-05-07T00:00:28;18.73;;;14.00;;
15094;SDS011;7648;52.264;9.632;2023-05-07T00:04:31;21.73;;;15.60;;
15094;SDS011;7648;52.264;9.632;2023-05-07T00:08:38;17.83;;;13.93;;
15094;SDS011;7648;52.264;9.632;2023-05-07T00:12:40;17.60;;;14.13;;
15094;SDS011;7648;52.264;9.632;2023-05-07T00:16:42;20.20;;;14.80;;
15094;SDS011;7648;52.264;9.632;2023-05-07T00:20:43;21.47;;;13.20;;
15094;SDS011;7648;52.264;9.632;2023-05-07T00:24:47;14.73;;;12.10;;
15094;SDS011;7648;52.264;9.632;2023-05-07T00:28:49;16.53;;;12.40;;
15094;SDS011;7648;52.264;9.632;2023-05-07T00:32:50;16.77;;;13.67;;
15094;SDS011;7648;52.264;9.632;2023-05-07T00:36:52;16.17;;;13.53;;
15094;SDS011;7648;52.264;9.632;2023-05-07T00:40:56;22.10;;;14.87;;
15094;SDS011;7648;52.264;9.632;2023-05-07T00:44:57;17.53;;;13.47;;
15094;SDS011;7648;52.264;9.632;2023-05-07T00:49:00;20.30;;;13.43;;
15094;SDS011;7648;52.264;9.632;2023-05-07T00:53:02;17.20;;;11.67;;
15094;SDS011;7648;52.264;9.632;2023-05-07T00:57:06;25.40;;;14.10;;
15094;SDS011;7648;52.264;9.632;2023-05-07T01:01:10;21.60;;;13.87;;
15094;SDS011;7648;52.264;9.632;2023-05-07T01:05:12;22.13;;;15.17;;
15094;SDS011;7648;52.264;9.632;2023-05-07T01:09:17;18.43;;;12.90;;
15094;SDS011;7648;52.264;9.632;2023-05-07T01:13:22;21.27;;;14.50;;
15094;SDS011;7648;52.264;9.632;2023-05-07T01:17:25;22.17;;;14.50;;
15094;SDS011;7648;52.264;9.632;2023-05-07T01:21:27;21.57;;;13.73;;
15094;SDS011;7648;52.264;9.632;2023-05-07T01:25:37;19.00;;;13.27;;
15094;SDS011;7648;52.264;9.632;2023-05-07T01:29:39;20.13;;;14.23;;
15094;SDS011;7648;52.264;9.632;2023-05-07T01:33:41;24.90;;;16.17;;
15094;SDS011;7648;52.264;9.632;2023-05-07T01:37:45;18.20;;;13.47;;
15094;SDS011;7648;52.264;9.632;2023-05-07T01:41:49;23.10;;;15.70;;
15094;SDS011;7648;52.264;9.632;2023-05-07T01:45:52;25.97;;;16.00;;
15094;SDS011;7648;52.264;9.632;2023-05-07T01:49:54;24.07;;;15.87;;
15094;SDS011;7648;52.264;9.632;2023-05-07T01:53:57;27.83;;;16.80;;
15094;SDS011;7648;52.264;9.632;2023-05-07T01:58:00;26.87;;;16.30;;
15094;SDS011;7648;52.264;9.632;2023-05-07T02:02:02;22.53;;;15.20;;
15094;SDS011;7648;52.264;9.632;2023-05-07T02:06:06;23.10;;;14.77;;
15094;SDS011;7648;52.264;9.632;2023-05-07T02:10:11;15.13;;;11.40;;
15094;SDS011;7648;52.264;9.632;2023-05-07T02:14:14;18.20;;;13.10;;
15094;SDS011;7648;52.264;9.632;2023-05-07T02:18:16;19.53;;;13.97;;
15094;SDS011;7648;52.264;9.632;2023-05-07T02:22:19;20.97;;;14.57;;
15094;SDS011;7648;52.264;9.632;2023-05-07T02:26:20;17.13;;;11.17;;
15094;SDS011;7648;52.264;9.632;2023-05-07T02:30:24;18.67;;;11.03;;
15094;SDS011;7648;52.264;9.632;2023-05-07T02:34:29;18.90;;;12.30;;
15094;SDS011;7648;52.264;9.632;2023-05-07T02:38:31;15.73;;;10.80;;
15094;SDS011;7648;52.264;9.632;2023-05-07T02:42:33;16.57;;;10.13;;
15094;SDS011;7648;52.264;9.632;2023-05-07T02:46:36;16.47;;;11.10;;
15094;SDS011;7648;52.264;9.632;2023-05-07T02:50:42;15.67;;;10.37;;
15094;SDS011;7648;52.264;9.632;2023-05-07T02:54:46;15.07;;;10.50;;
15094;SDS011;7648;52.264;9.632;2023-05-07T02:58:48;10.73;;;9.67;;
15094;SDS011;7648;52.264;9.632;2023-05-07T03:02:53;12.83;;;9.60;;
15094;SDS011;7648;52.264;9.632;2023-05-07T03:06:56;15.80;;;11.53;;
15094;SDS011;7648;52.264;9.632;2023-05-07T03:10:58;14.73;;;11.07;;
15094;SDS011;7648;52.264;9.632;2023-05-07T03:15:00;15.53;;;11.13;;
15094;SDS011;7648;52.264;9.632;2023-05-07T03:19:03;13.17;;;11.07;;
15094;SDS011;7648;52.264;9.632;2023-05-07T03:23:05;16.63;;;11.07;;
15094;SDS011;7648;52.264;9.632;2023-05-07T03:27:08;13.73;;;9.83;;
15094;SDS011;7648;52.264;9.632;2023-05-07T03:31:10;14.40;;;11.23;;
15094;SDS011;7648;52.264;9.632;2023-05-07T03:35:14;17.00;;;12.67;;
15094;SDS011;7648;52.264;9.632;2023-05-07T03:39:16;18.23;;;12.50;;
15094;SDS011;7648;52.264;9.632;2023-05-07T03:43:18;12.53;;;10.40;;
15094;SDS011;7648;52.264;9.632;2023-05-07T03:47:25;14.50;;;10.83;;
15094;SDS011;7648;52.264;9.632;2023-05-07T03:51:29;17.73;;;11.33;;
15094;SDS011;7648;52.264;9.632;2023-05-07T03:55:31;17.07;;;12.60;;
15094;SDS011;7648;52.264;9.632;2023-05-07T03:59:34;16.00;;;11.80;;
15094;SDS011;7648;52.264;9.632;2023-05-07T04:03:36;18.83;;;12.93;;
15094;SDS011;7648;52.264;9.632;2023-05-07T04:07:40;17.07;;;12.23;;
15094;SDS011;7648;52.264;9.632;2023-05-07T04:11:42;17.67;;;11.97;;
15094;SDS011;7648;52.264;9.632;2023-05-07T04:15:45;15.57;;;11.93;;
15094;SDS011;7648;52.264;9.632;2023-05-07T04:19:51;17.23;;;11.27;;
15094;SDS011;7648;52.264;9.632;2023-05-07T04:23:55;16.90;;;11.73;;
15094;SDS011;7648;52.264;9.632;2023-05-07T04:27:58;16.43;;;10.80;;
15094;SDS011;7648;52.264;9.632;2023-05-07T04:32:01;14.43;;;10.40;;
15094;SDS011;7648;52.264;9.632;2023-05-07T04:36:03;16.30;;;11.53;;
15094;SDS011;7648;52.264;9.632;2023-05-07T04:40:12;18.07;;;12.37;;
15094;SDS011;7648;52.264;9.632;2023-05-07T04:44:15;13.43;;;10.53;;
15094;SDS011;7648;52.264;9.632;2023-05-07T04:48:17;16.70;;;12.10;;
15094;SDS011;7648;52.264;9.632;2023-05-07T04:52:21;17.80;;;11.57;;
15094;SDS011;7648;52.264;9.632;2023-05-07T04:56:25;15.90;;;11.63;;
15094;SDS011;7648;52.264;9.632;2023-05-07T05:00:29;16.07;;;12.47;;
15094;SDS011;7648;52.264;9.632;2023-05-07T05:04:32;15.00;;;11.37;;
15094;SDS011;7648;52.264;9.632;2023-05-07T05:08:34;14.87;;;9.87;;
15094;SDS011;7648;52.264;9.632;2023-05-07T05:12:39;13.57;;;10.57;;
15094;SDS011;7648;52.264;9.632;2023-05-07T05:16:41;11.17;;;9.43;;
15094;SDS011;7648;52.264;9.632;2023-05-07T05:20:43;12.87;;;10.23;;
15094;SDS011;7648;52.264;9.632;2023-05-07T05:24:46;17.67;;;11.33;;
15094;SDS011;7648;52.264;9.632;2023-05-07T05:28:49;14.70;;;11.33;;
15094;SDS011;7648;52.264;9.632;2023-05-07T05:32:54;14.30;;;10.37;;
15094;SDS011;7648;52.264;9.632;2023-05-07T05:36:56;15.40;;;11.40;;
15094;SDS011;7648;52.264;9.632;2023-05-07T05:40:58;13.83;;;10.17;;
15094;SDS011;7648;52.264;9.632;2023-05-07T05:45:02;12.63;;;9.80;;
15094;SDS011;7648;52.264;9.632;2023-05-07T05:49:06;10.97;;;8.60;;
15094;SDS011;7648;52.264;9.632;2023-05-07T05:53:09;14.10;;;12.37;;
15094;SDS011;7648;52.264;9.632;2023-05-07T05:57:11;11.87;;;10.33;;
15094;SDS011;7648;52.264;9.632;2023-05-07T06:01:14;10.97;;;9.10;;
15094;SDS011;7648;52.264;9.632;2023-05-07T06:05:16;11.10;;;8.60;;
15094;SDS011;7648;52.264;9.632;2023-05-07T06:09:19;12.37;;;8.80;;
15094;SDS011;7648;52.264;9.632;2023-05-07T06:13:21;9.27;;;8.27;;
15094;SDS011;7648;52.264;9.632;2023-05-07T06:17:26;8.03;;;7.23;;
15094;SDS011;7648;52.264;9.632;2023-05-07T06:21:28;7.23;;;6.53;;
15094;SDS011;7648;52.264;9.632;2023-05-07T06:25:31;7.90;;;7.20;;
15094;SDS011;7648;52.264;9.632;2023-05-07T06:29:32;8.77;;;7.87;;
15094;SDS011;7648;52.264;9.632;2023-05-07T06:33:38;7.83;;;6.10;;
15094;SDS011;7648;52.264;9.632;2023-05-07T06:37:41;6.67;;;6.07;;
15094;SDS011;7648;52.264;9.632;2023-05-07T06:41:48;8.10;;;7.30;;
15094;SDS011;7648;52.264;9.632;2023-05-07T06:45:58;9.43;;;6.57;;
15094;SDS011;7648;52.264;9.632;2023-05-07T06:50:02;17.27;;;13.23;;
15094;SDS011;7648;52.264;9.632;2023-05-07T06:54:06;7.10;;;6.37;;
15094;SDS011;7648;52.264;9.632;2023-05-07T06:58:12;8.67;;;7.80;;
15094;SDS011;7648;52.264;9.632;2023-05-07T07:02:14;6.23;;;5.73;;
15094;SDS011;7648;52.264;9.632;2023-05-07T07:06:17;9.43;;;5.87;;
15094;SDS011;7648;52.264;9.632;2023-05-07T07:10:20;5.90;;;5.27;;
15094;SDS011;7648;52.264;9.632;2023-05-07T07:14:24;6.37;;;5.77;;
15094;SDS011;7648;52.264;9.632;2023-05-07T07:18:28;6.07;;;5.47;;
15094;SDS011;7648;52.264;9.632;2023-05-07T07:22:33;6.23;;;5.73;;
15094;SDS011;7648;52.264;9.632;2023-05-07T07:26:35;14.40;;;11.90;;
15094;SDS011;7648;52.264;9.632;2023-05-07T07:30:37;6.30;;;5.23;;
15094;SDS011;7648;52.264;9.632;2023-05-07T07:34:41;5.33;;;4.83;;
15094;SDS011;7648;52.264;9.632;2023-05-07T07:38:45;6.33;;;5.73;;
15094;SDS011;7648;52.264;9.632;2023-05-07T07:42:48;6.13;;;5.53;;
15094;SDS011;7648;52.264;9.632;2023-05-07T07:46:50;5.37;;;4.87;;
15094;SDS011;7648;52.264;9.632;2023-05-07T07:50:56;5.23;;;4.83;;
15094;SDS011;7648;52.264;9.632;2023-05-07T07:55:03;5.70;;;5.20;;
15094;SDS011;7648;52.264;9.632;2023-05-07T07:59:07;6.23;;;5.63;;
15094;SDS011;7648;52.264;9.632;2023-05-07T08:03:12;5.47;;;5.07;;
15094;SDS011;7648;52.264;9.632;2023-05-07T08:07:19;6.80;;;6.00;;
15094;SDS011;7648;52.264;9.632;2023-05-07T08:11:24;5.57;;;5.10;;
15094;SDS011;7648;52.264;9.632;2023-05-07T08:15:28;6.93;;;6.33;;
15094;SDS011;7648;52.264;9.632;2023-05-07T08:19:31;8.47;;;7.77;;
15094;SDS011;7648;52.264;9.632;2023-05-07T08:23:33;7.20;;;6.60;;
15094;SDS011;7648;52.264;9.632;2023-05-07T08:27:37;6.67;;;6.00;;
15094;SDS011;7648;52.264;9.632;2023-05-07T08:31:39;7.00;;;6.30;;
15094;SDS011;7648;52.264;9.632;2023-05-07T08:35:41;7.67;;;6.97;;
15094;SDS011;7648;52.264;9.632;2023-05-07T08:39:45;8.27;;;7.57;;
15094;SDS011;7648;52.264;9.632;2023-05-07T08:43:54;9.80;;;8.90;;
15094;SDS011;7648;52.264;9.632;2023-05-07T08:48:01;9.70;;;8.73;;
15094;SDS011;7648;52.264;9.632;2023-05-07T08:52:09;7.03;;;6.43;;
15094;SDS011;7648;52.264;9.632;2023-05-07T08:56:13;8.50;;;7.57;;
15094;SDS011;7648;52.264;9.632;2023-05-07T09:00:17;6.93;;;6.33;;
15094;SDS011;7648;52.264;9.632;2023-05-07T09:04:23;8.23;;;7.53;;
15094;SDS011;7648;52.264;9.632;2023-05-07T09:08:26;7.67;;;6.97;;
15094;SDS011;7648;52.264;9.632;2023-05-07T09:12:31;8.40;;;7.13;;
15094;SDS011;7648;52.264;9.632;2023-05-07T09:16:38;9.10;;;8.23;;
15094;SDS011;7648;52.264;9.632;2023-05-07T09:20:40;18.30;;;14.50;;
15094;SDS011;7648;52.264;9.632;2023-05-07T09:24:47;8.40;;;7.47;;
15094;SDS011;7648;52.264;9.632;2023-05-07T09:28:50;8.70;;;7.30;;
15094;SDS011;7648;52.264;9.632;2023-05-07T09:32:56;7.53;;;6.90;;
15094;SDS011;7648;52.264;9.632;2023-05-07T09:37:00;7.53;;;6.83;;
15094;SDS011;7648;52.264;9.632;2023-05-07T09:41:04;7.93;;;7.23;;
15094;SDS011;7648;52.264;9.632;2023-05-07T09:45:13;8.17;;;7.37;;
15094;SDS011;7648;52.264;9.632;2023-05-07T09:49:20;7.83;;;7.13;;
15094;SDS011;7648;52.264;9.632;2023-05-07T09:53:26;9.10;;;8.17;;
15094;SDS011;7648;52.264;9.632;2023-05-07T09:57:30;7.40;;;6.77;;
15094;SDS011;7648;52.264;9.632;2023-05-07T10:01:38;7.60;;;6.90;;
15094;SDS011;7648;52.264;9.632;2023-05-07T10:05:43;8.73;;;7.87;;
15094;SDS011;7648;52.264;9.632;2023-05-07T10:09:48;9.63;;;8.57;;
15094;SDS011;7648;52.264;9.632;2023-05-07T10:13:58;8.67;;;7.77;;
15094;SDS011;7648;52.264;9.632;2023-05-07T10:18:04;9.33;;;8.43;;
15094;SDS011;7648;52.264;9.632;2023-05-07T10:22:11;9.43;;;8.43;;
15094;SDS011;7648;52.264;9.632;2023-05-07T10:26:19;9.23;;;7.90;;
15094;SDS011;7648;52.264;9.632;2023-05-07T10:30:26;9.63;;;8.63;;
15094;SDS011;7648;52.264;9.632;2023-05-07T10:34:39;10.00;;;9.00;;
15094;SDS011;7648;52.264;9.632;2023-05-07T10:38:46;8.23;;;7.43;;
15094;SDS011;7648;52.264;9.632;2023-05-07T10:42:54;8.53;;;7.73;;
15094;SDS011;7648;52.264;9.632;2023-05-07T10:47:07;9.03;;;8.20;;
15094;SDS011;7648;52.264;9.632;2023-05-07T10:51:20;9.87;;;8.87;;
15094;SDS011;7648;52.264;9.632;2023-05-07T10:55:31;8.37;;;7.70;;
15094;SDS011;7648;52.264;9.632;2023-05-07T10:59:44;9.00;;;8.13;;
15094;SDS011;7648;52.264;9.632;2023-05-07T11:04:14;8.20;;;7.50;;
15094;SDS011;7648;52.264;9.632;2023-05-07T11:08:25;8.47;;;7.67;;
15094;SDS011;7648;52.264;9.632;2023-05-07T11:12:49;7.70;;;7.10;;
15094;SDS011;7648;52.264;9.632;2023-05-07T11:17:02;8.10;;;7.47;;
15094;SDS011;7648;52.264;9.632;2023-05-07T11:21:05;8.47;;;7.87;;
15094;SDS011;7648;52.264;9.632;2023-05-07T11:25:16;7.13;;;6.53;;
15094;SDS011;7648;52.264;9.632;2023-05-07T11:29:22;7.70;;;7.03;;
15094;SDS011;7648;52.264;9.632;2023-05-07T11:33:30;8.27;;;7.57;;
15094;SDS011;7648;52.264;9.632;2023-05-07T11:37:35;7.60;;;6.90;;
15094;SDS011;7648;52.264;9.632;2023-05-07T11:41:39;8.37;;;7.67;;
15094;SDS011;7648;52.264;9.632;2023-05-07T11:45:44;9.20;;;8.37;;
15094;SDS011;7648;52.264;9.632;2023-05-07T11:49:47;7.57;;;6.87;;
15094;SDS011;7648;52.264;9.632;2023-05-07T11:53:49;7.77;;;7.17;;
15094;SDS011;7648;52.264;9.632;2023-05-07T11:57:51;7.47;;;6.90;;
15094;SDS011;7648;52.264;9.632;2023-05-07T12:01:57;7.67;;;7.17;;
15094;SDS011;7648;52.264;9.632;2023-05-07T12:05:59;6.63;;;6.23;;
15094;SDS011;7648;52.264;9.632;2023-05-07T12:10:04;7.07;;;6.47;;
15094;SDS011;7648;52.264;9.632;2023-05-07T12:14:06;12.73;;;11.53;;
15094;SDS011;7648;52.264;9.632;2023-05-07T12:18:10;7.90;;;7.40;;
15094;SDS011;7648;52.264;9.632;2023-05-07T12:22:12;8.70;;;8.10;;
15094;SDS011;7648;52.264;9.632;2023-05-07T12:26:14;8.17;;;7.50;;
15094;SDS011;7648;52.264;9.632;2023-05-07T12:30:17;6.77;;;6.23;;
15094;SDS011;7648;52.264;9.632;2023-05-07T12:34:21;6.57;;;6.07;;
15094;SDS011;7648;52.264;9.632;2023-05-07T12:38:24;8.70;;;6.73;;
15094;SDS011;7648;52.264;9.632;2023-05-07T12:42:27;7.07;;;6.47;;
15094;SDS011;7648;52.264;9.632;2023-05-07T12:46:38;6.07;;;5.67;;
15094;SDS011;7648;52.264;9.632;2023-05-07T12:50:41;6.30;;;5.90;;
15094;SDS011;7648;52.264;9.632;2023-05-07T12:54:44;5.83;;;5.33;;
15094;SDS011;7648;52.264;9.632;2023-05-07T12:58:46;5.93;;;5.47;;
15094;SDS011;7648;52.264;9.632;2023-05-07T13:02:50;5.80;;;5.40;;
15094;SDS011;7648;52.264;9.632;2023-05-07T13:06:54;5.83;;;5.33;;
15094;SDS011;7648;52.264;9.632;2023-05-07T13:10:57;5.17;;;4.87;;
15094;SDS011;7648;52.264;9.632;2023-05-07T13:15:00;5.50;;;5.10;;
15094;SDS011;7648;52.264;9.632;2023-05-07T13:19:03;6.13;;;5.73;;
15094;SDS011;7648;52.264;9.632;2023-05-07T13:23:06;5.50;;;5.10;;
15094;SDS011;7648;52.264;9.632;2023-05-07T13:27:08;6.33;;;5.83;;
15094;SDS011;7648;52.264;9.632;2023-05-07T13:31:11;6.23;;;5.70;;
15094;SDS011;7648;52.264;9.632;2023-05-07T13:35:13;7.60;;;7.00;;
15094;SDS011;7648;52.264;9.632;2023-05-07T13:39:20;6.63;;;6.13;;
15094;SDS011;7648;52.264;9.632;2023-05-07T13:43:22;7.17;;;6.67;;
15094;SDS011;7648;52.264;9.632;2023-05-07T13:47:25;7.83;;;7.23;;
15094;SDS011;7648;52.264;9.632;2023-05-07T13:51:27;7.80;;;7.20;;
15094;SDS011;7648;52.264;9.632;2023-05-07T13:55:30;7.33;;;6.83;;
15094;SDS011;7648;52.264;9.632;2023-05-07T13:59:33;7.53;;;7.00;;
15094;SDS011;7648;52.264;9.632;2023-05-07T14:03:35;7.43;;;6.93;;
15094;SDS011;7648;52.264;9.632;2023-05-07T14:07:39;6.83;;;6.40;;
15094;SDS011;7648;52.264;9.632;2023-05-07T14:11:42;7.47;;;6.97;;
15094;SDS011;7648;52.264;9.632;2023-05-07T14:15:44;6.97;;;6.53;;
15094;SDS011;7648;52.264;9.632;2023-05-07T14:19:48;8.37;;;7.57;;
15094;SDS011;7648;52.264;9.632;2023-05-07T14:23:50;6.33;;;5.93;;
15094;SDS011;7648;52.264;9.632;2023-05-07T14:27:54;7.27;;;6.77;;
15094;SDS011;7648;52.264;9.632;2023-05-07T14:31:57;7.63;;;7.10;;
15094;SDS011;7648;52.264;9.632;2023-05-07T14:35:59;6.90;;;6.40;;
15094;SDS011;7648;52.264;9.632;2023-05-07T14:40:01;7.37;;;6.87;;
15094;SDS011;7648;52.264;9.632;2023-05-07T14:44:05;6.03;;;5.63;;
15094;SDS011;7648;52.264;9.632;2023-05-07T14:48:07;6.67;;;6.17;;
15094;SDS011;7648;52.264;9.632;2023-05-07T14:52:12;5.43;;;5.03;;
15094;SDS011;7648;52.264;9.632;2023-05-07T14:56:14;5.97;;;5.57;;
15094;SDS011;7648;52.264;9.632;2023-05-07T15:00:18;5.97;;;5.57;;
15094;SDS011;7648;52.264;9.632;2023-05-07T15:04:21;6.40;;;5.90;;
15094;SDS011;7648;52.264;9.632;2023-05-07T15:08:22;6.60;;;6.10;;
15094;SDS011;7648;52.264;9.632;2023-05-07T15:12:24;6.27;;;5.77;;
15094;SDS011;7648;52.264;9.632;2023-05-07T15:16:28;5.93;;;5.43;;
15094;SDS011;7648;52.264;9.632;2023-05-07T15:20:30;5.87;;;5.47;;
15094;SDS011;7648;52.264;9.632;2023-05-07T15:24:31;6.37;;;5.87;;
15094;SDS011;7648;52.264;9.632;2023-05-07T15:28:33;6.73;;;6.23;;
15094;SDS011;7648;52.264;9.632;2023-05-07T15:32:37;5.73;;;5.23;;
15094;SDS011;7648;52.264;9.632;2023-05-07T15:36:39;6.87;;;6.27;;
15094;SDS011;7648;52.264;9.632;2023-05-07T15:40:41;6.17;;;5.27;;
15094;SDS011;7648;52.264;9.632;2023-05-07T15:44:43;6.70;;;6.20;;
15094;SDS011;7648;52.264;9.632;2023-05-07T15:48:46;7.10;;;6.40;;
15094;SDS011;7648;52.264;9.632;2023-05-07T15:52:48;5.23;;;4.83;;
15094;SDS011;7648;52.264;9.632;2023-05-07T15:56:50;6.60;;;6.10;;
15094;SDS011;7648;52.264;9.632;2023-05-07T16:00:51;7.30;;;6.70;;
15094;SDS011;7648;52.264;9.632;2023-05-07T16:04:55;6.80;;;6.20;;
15094;SDS011;7648;52.264;9.632;2023-05-07T16:08:57;7.07;;;6.53;;
15094;SDS011;7648;52.264;9.632;2023-05-07T16:12:58;6.27;;;5.80;;
15094;SDS011;7648;52.264;9.632;2023-05-07T16:17:02;6.77;;;6.30;;
15094;SDS011;7648;52.264;9.632;2023-05-07T16:21:05;7.37;;;6.70;;
15094;SDS011;7648;52.264;9.632;2023-05-07T16:25:07;6.30;;;5.80;;
15094;SDS011;7648;52.264;9.632;2023-05-07T16:29:10;7.33;;;6.73;;
15094;SDS011;7648;52.264;9.632;2023-05-07T16:33:11;6.90;;;6.43;;
15094;SDS011;7648;52.264;9.632;2023-05-07T16:37:15;6.53;;;6.03;;
15094;SDS011;7648;52.264;9.632;2023-05-07T16:41:16;7.23;;;6.73;;
15094;SDS011;7648;52.264;9.632;2023-05-07T16:45:18;7.00;;;6.43;;
15094;SDS011;7648;52.264;9.632;2023-05-07T16:49:20;7.20;;;6.60;;
15094;SDS011;7648;52.264;9.632;2023-05-07T16:53:24;6.77;;;6.27;;
15094;SDS011;7648;52.264;9.632;2023-05-07T16:57:25;7.10;;;6.60;;
15094;SDS011;7648;52.264;9.632;2023-05-07T17:01:27;8.27;;;7.50;;
15094;SDS011;7648;52.264;9.632;2023-05-07T17:05:31;7.70;;;7.10;;
15094;SDS011;7648;52.264;9.632;2023-05-07T17:09:34;8.87;;;8.03;;
15094;SDS011;7648;52.264;9.632;2023-05-07T17:13:36;8.07;;;7.37;;
15094;SDS011;7648;52.264;9.632;2023-05-07T17:17:39;7.43;;;6.83;;
15094;SDS011;7648;52.264;9.632;2023-05-07T17:21:41;7.73;;;7.00;;
15094;SDS011;7648;52.264;9.632;2023-05-07T17:25:44;7.20;;;6.70;;
15094;SDS011;7648;52.264;9.632;2023-05-07T17:29:47;6.23;;;5.83;;
15094;SDS011;7648;52.264;9.632;2023-05-07T17:33:49;7.37;;;6.77;;
15094;SDS011;7648;52.264;9.632;2023-05-07T17:37:51;6.33;;;5.83;;
15094;SDS011;7648;52.264;9.632;2023-05-07T17:41:54;6.67;;;6.07;;
15094;SDS011;7648;52.264;9.632;2023-05-07T17:45:56;7.13;;;6.53;;
15094;SDS011;7648;52.264;9.632;2023-05-07T17:49:58;6.80;;;6.27;;
15094;SDS011;7648;52.264;9.632;2023-05-07T17:54:02;6.07;;;5.60;;
15094;SDS011;7648;52.264;9.632;2023-05-07T17:58:05;8.37;;;6.43;;
15094;SDS011;7648;52.264;9.632;2023-05-07T18:02:08;6.67;;;6.17;;
15094;SDS011;7648;52.264;9.632;2023-05-07T18:06:10;6.40;;;5.90;;
15094;SDS011;7648;52.264;9.632;2023-05-07T18:10:17;7.47;;;6.57;;
15094;SDS011;7648;52.264;9.632;2023-05-07T18:14:21;5.43;;;5.03;;
15094;SDS011;7648;52.264;9.632;2023-05-07T18:18:25;5.97;;;5.57;;
15094;SDS011;7648;52.264;9.632;2023-05-07T18:22:29;5.53;;;5.03;;
15094;SDS011;7648;52.264;9.632;2023-05-07T18:26:32;5.43;;;5.03;;
15094;SDS011;7648;52.264;9.632;2023-05-07T18:30:36;6.20;;;5.70;;
15094;SDS011;7648;52.264;9.632;2023-05-07T18:34:37;5.77;;;5.37;;
15094;SDS011;7648;52.264;9.632;2023-05-07T18:38:40;6.50;;;5.90;;
15094;SDS011;7648;52.264;9.632;2023-05-07T18:42:42;5.53;;;5.03;;
15094;SDS011;7648;52.264;9.632;2023-05-07T18:46:45;5.87;;;5.37;;
15094;SDS011;7648;52.264;9.632;2023-05-07T18:50:47;6.03;;;5.53;;
15094;SDS011;7648;52.264;9.632;2023-05-07T18:54:49;5.37;;;4.97;;
15094;SDS011;7648;52.264;9.632;2023-05-07T18:58:51;5.63;;;5.17;;
15094;SDS011;7648;52.264;9.632;2023-05-07T19:02:54;5.30;;;4.90;;
15094;SDS011;7648;52.264;9.632;2023-05-07T19:06:56;4.90;;;4.50;;
15094;SDS011;7648;52.264;9.632;2023-05-07T19:10:58;5.33;;;4.93;;
15094;SDS011;7648;52.264;9.632;2023-05-07T19:15:00;5.57;;;4.97;;
15094;SDS011;7648;52.264;9.632;2023-05-07T19:19:03;5.13;;;4.73;;
15094;SDS011;7648;52.264;9.632;2023-05-07T19:23:05;5.73;;;5.33;;
15094;SDS011;7648;52.264;9.632;2023-05-07T19:27:09;5.40;;;5.00;;
15094;SDS011;7648;52.264;9.632;2023-05-07T19:31:16;5.43;;;5.03;;
15094;SDS011;7648;52.264;9.632;2023-05-07T19:35:20;5.37;;;4.97;;
15094;SDS011;7648;52.264;9.632;2023-05-07T19:39:22;4.80;;;4.40;;
15094;SDS011;7648;52.264;9.632;2023-05-07T19:43:24;5.10;;;4.60;;
15094;SDS011;7648;52.264;9.632;2023-05-07T19:47:26;5.57;;;5.17;;
15094;SDS011;7648;52.264;9.632;2023-05-07T19:51:29;5.70;;;5.20;;
15094;SDS011;7648;52.264;9.632;2023-05-07T19:55:32;5.50;;;5.07;;
15094;SDS011;7648;52.264;9.632;2023-05-07T19:59:34;4.80;;;4.50;;
15094;SDS011;7648;52.264;9.632;2023-05-07T20:03:36;5.57;;;4.80;;
15094;SDS011;7648;52.264;9.632;2023-05-07T20:07:39;5.67;;;5.27;;
15094;SDS011;7648;52.264;9.632;2023-05-07T20:11:41;5.40;;;5.00;;
15094;SDS011;7648;52.264;9.632;2023-05-07T20:15:43;5.67;;;5.27;;
15094;SDS011;7648;52.264;9.632;2023-05-07T20:19:45;5.67;;;5.27;;
15094;SDS011;7648;52.264;9.632;2023-05-07T20:23:48;4.83;;;4.53;;
15094;SDS011;7648;52.264;9.632;2023-05-07T20:27:50;5.03;;;4.67;;
15094;SDS011;7648;52.264;9.632;2023-05-07T20:31:53;5.13;;;4.60;;
15094;SDS011;7648;52.264;9.632;2023-05-07T20:35:56;6.67;;;4.90;;
15094;SDS011;7648;52.264;9.632;2023-05-07T20:39:59;4.50;;;4.20;;
15094;SDS011;7648;52.264;9.632;2023-05-07T20:44:02;4.60;;;4.30;;
15094;SDS011;7648;52.264;9.632;2023-05-07T20:48:04;5.20;;;4.73;;
15094;SDS011;7648;52.264;9.632;2023-05-07T20:52:06;4.47;;;4.17;;
15094;SDS011;7648;52.264;9.632;2023-05-07T20:56:09;5.00;;;4.57;;
15094;SDS011;7648;52.264;9.632;2023-05-07T21:00:11;4.20;;;3.90;;
15094;SDS011;7648;52.264;9.632;2023-05-07T21:04:14;4.00;;;3.70;;
15094;SDS011;7648;52.264;9.632;2023-05-07T21:08:16;4.70;;;4.40;;
15094;SDS011;7648;52.264;9.632;2023-05-07T21:12:20;4.10;;;3.80;;
15094;SDS011;7648;52.264;9.632;2023-05-07T21:16:22;4.60;;;4.27;;
15094;SDS011;7648;52.264;9.632;2023-05-07T21:20:24;4.13;;;3.83;;
15094;SDS011;7648;52.264;9.632;2023-05-07T21:24:26;4.50;;;4.20;;
15094;SDS011;7648;52.264;9.632;2023-05-07T21:28:29;4.07;;;3.50;;
15094;SDS011;7648;52.264;9.632;2023-05-07T21:32:31;4.10;;;3.70;;
15094;SDS011;7648;52.264;9.632;2023-05-07T21:36:33;3.77;;;3.57;;
15094;SDS011;7648;52.264;9.632;2023-05-07T21:40:35;4.20;;;3.90;;
15094;SDS011;7648;52.264;9.632;2023-05-07T21:44:38;3.90;;;3.70;;
15094;SDS011;7648;52.264;9.632;2023-05-07T21:48:40;3.70;;;3.50;;
15094;SDS011;7648;52.264;9.632;2023-05-07T21:52:42;4.60;;;4.20;;
15094;SDS011;7648;52.264;9.632;2023-05-07T21:56:43;3.97;;;3.67;;
15094;SDS011;7648;52.264;9.632;2023-05-07T22:00:47;4.07;;;3.77;;
15094;SDS011;7648;52.264;9.632;2023-05-07T22:04:48;4.00;;;3.67;;
15094;SDS011;7648;52.264;9.632;2023-05-07T22:08:50;3.70;;;3.50;;
15094;SDS011;7648;52.264;9.632;2023-05-07T22:12:52;4.27;;;3.87;;
15094;SDS011;7648;52.264;9.632;2023-05-07T22:16:56;4.40;;;4.10;;
15094;SDS011;7648;52.264;9.632;2023-05-07T22:20:57;4.90;;;4.30;;
15094;SDS011;7648;52.264;9.632;2023-05-07T22:24:59;4.63;;;4.30;;
15094;SDS011;7648;52.264;9.632;2023-05-07T22:29:01;4.60;;;4.30;;
15094;SDS011;7648;52.264;9.632;2023-05-07T22:33:04;4.30;;;4.00;;
15094;SDS011;7648;52.264;9.632;2023-05-07T22:37:06;4.03;;;3.73;;
15094;SDS011;7648;52.264;9.632;2023-05-07T22:41:08;4.23;;;3.93;;
15094;SDS011;7648;52.264;9.632;2023-05-07T22:45:10;3.90;;;3.70;;
15094;SDS011;7648;52.264;9.632;2023-05-07T22:49:13;4.83;;;4.43;;
15094;SDS011;7648;52.264;9.632;2023-05-07T22:53:15;4.57;;;4.27;;
15094;SDS011;7648;52.264;9.632;2023-05-07T22:57:17;4.50;;;4.20;;
15094;SDS011;7648;52.264;9.632;2023-05-07T23:01:19;4.73;;;4.37;;
15094;SDS011;7648;52.264;9.632;2023-05-07T23:05:22;5.27;;;4.87;;
15094;SDS011;7648;52.264;9.632;2023-05-07T23:09:24;4.87;;;4.50;;
15094;SDS011;7648;52.264;9.632;2023-05-07T23:13:26;5.93;;;5.47;;
15094;SDS011;7648;52.264;9.632;2023-05-07T23:17:28;5.63;;;5.23;;
15094;SDS011;7648;52.264;9.632;2023-05-07T23:21:31;5.23;;;4.83;;
15094;SDS011;7648;52.264;9.632;2023-05-07T23:25:33;5.00;;;4.60;;
15094;SDS011;7648;52.264;9.632;2023-05-07T23:29:35;5.80;;;4.90;;
15094;SDS011;7648;52.264;9.632;2023-05-07T23:33:37;4.33;;;4.03;;
15094;SDS011;7648;52.264;9.632;2023-05-07T23:37:40;6.30;;;5.70;;
15094;SDS011;7648;52.264;9.632;2023-05-07T23:41:42;6.63;;;5.37;;
15094;SDS011;7648;52.264;9.632;2023-05-07T23:45:44;5.57;;;5.13;;
15094;SDS011;7648;52.264;9.632;2023-05-07T23:49:46;5.23;;;4.83;;
15094;SDS011;7648;52.264;9.632;2023-05-07T23:53:49;5.33;;;4.93;;
15094;SDS011;7648;52.264;9.632;2023-05-07T23:57:51;5.50;;;5.00;;
